Time;durP1;ratioP1;P1;durP2;ratioP2;P2;SDS_P1;SDS_P2;PMS_P1;PMS_P2;Temp;Humidity;BMP_temperature;BMP_pressure;BME280_temperature;BME280_humidity;BME280_pressure;Samples;Min_cycle;Max_cycle;Signal;HPM_P1;HPM_P2
2023/04/25 00:00:26;;;;;;;18.00;4.10;;;8.10;99.90;;;;;;5021303;28;20231;-60
2023/04/25 00:02:56;;;;;;;18.80;3.70;;;8.00;99.90;;;;;;5021286;28;20687;-59
2023/04/25 00:05:25;;;;;;;16.07;4.47;;;8.00;99.90;;;;;;5021052;28;20279;-59
2023/04/25 00:07:53;;;;;;;20.53;4.53;;;8.00;99.90;;;;;;5021950;28;20266;-60
2023/04/25 00:10:22;;;;;;;19.97;4.17;;;7.90;99.90;;;;;;5023359;28;20235;-60
2023/04/25 00:12:50;;;;;;;20.33;4.53;;;7.90;99.90;;;;;;5022205;28;20233;-60
2023/04/25 00:15:18;;;;;;;17.80;3.77;;;7.90;99.90;;;;;;5023772;28;20252;-59
2023/04/25 00:17:46;;;;;;;22.47;4.33;;;7.80;99.90;;;;;;5035033;28;20251;-60
2023/04/25 00:20:16;;;;;;;21.37;4.90;;;7.80;99.90;;;;;;5032397;28;20743;-60
2023/04/25 00:22:44;;;;;;;21.83;4.30;;;7.80;99.90;;;;;;5042485;28;20229;-60
2023/04/25 00:25:12;;;;;;;22.50;4.97;;;7.80;99.90;;;;;;5043996;28;20229;-60
2023/04/25 00:27:41;;;;;;;18.87;4.50;;;7.80;99.90;;;;;;5043833;28;20242;-59
2023/04/25 00:30:10;;;;;;;21.67;4.83;;;7.70;99.90;;;;;;5044400;28;20223;-60
2023/04/25 00:32:38;;;;;;;21.50;4.43;;;7.70;99.90;;;;;;5043754;28;20232;-60
2023/04/25 00:35:07;;;;;;;16.83;4.40;;;7.70;99.90;;;;;;5043719;28;20714;-59
2023/04/25 00:37:37;;;;;;;13.30;3.80;;;7.70;99.90;;;;;;5044118;28;20225;-60
2023/04/25 00:40:07;;;;;;;17.47;4.30;;;7.60;99.90;;;;;;5043360;28;20225;-60
2023/04/25 00:42:37;;;;;;;19.33;4.30;;;7.60;99.90;;;;;;5024638;28;20233;-60
2023/04/25 00:45:08;;;;;;;19.33;4.70;;;7.60;99.90;;;;;;5042961;28;20213;-60
2023/04/25 00:47:37;;;;;;;20.73;4.93;;;7.60;99.90;;;;;;5024564;28;20227;-60
2023/04/25 00:50:06;;;;;;;22.10;4.30;;;7.60;99.90;;;;;;5030623;28;20222;-60
2023/04/25 00:52:35;;;;;;;20.07;4.90;;;7.50;99.90;;;;;;5021802;28;20230;-60
2023/04/25 00:55:05;;;;;;;23.40;5.57;;;7.50;99.90;;;;;;5019862;28;20256;-59
2023/04/25 00:57:33;;;;;;;21.97;5.20;;;7.50;99.90;;;;;;5024136;28;20233;-60
2023/04/25 01:00:02;;;;;;;21.40;4.23;;;7.40;99.90;;;;;;5038207;28;20279;-60
2023/04/25 01:02:31;;;;;;;18.27;4.23;;;7.40;99.90;;;;;;5035855;28;20236;-56
2023/04/25 01:04:59;;;;;;;19.60;4.53;;;7.40;99.90;;;;;;5018169;23;20692;-59
2023/04/25 01:07:28;;;;;;;19.97;4.50;;;7.30;99.90;;;;;;5015596;28;20239;-59
2023/04/25 01:09:57;;;;;;;30.03;4.40;;;7.30;99.90;;;;;;5015802;28;20273;-58
2023/04/25 01:12:26;;;;;;;24.13;5.20;;;7.30;99.90;;;;;;5007729;28;20233;-58
2023/04/25 01:14:55;;;;;;;21.10;4.80;;;7.30;99.90;;;;;;4996162;28;20238;-58
2023/04/25 01:17:24;;;;;;;20.13;4.23;;;7.30;99.90;;;;;;5002206;28;20235;-59
2023/04/25 01:19:52;;;;;;;20.40;4.33;;;7.30;99.90;;;;;;4996399;28;20225;-58
2023/04/25 01:22:22;;;;;;;20.63;4.47;;;7.30;99.90;;;;;;5016152;28;20253;-59
2023/04/25 01:24:51;;;;;;;20.40;4.10;;;7.20;99.90;;;;;;4997849;28;20237;-59
2023/04/25 01:27:20;;;;;;;21.57;4.50;;;7.30;99.90;;;;;;5000895;28;20225;-58
2023/04/25 01:29:49;;;;;;;16.47;4.40;;;7.30;99.90;;;;;;4978515;28;20245;-59
2023/04/25 01:32:17;;;;;;;19.53;4.70;;;7.30;99.90;;;;;;4994938;28;20241;-59
2023/04/25 01:34:46;;;;;;;18.07;4.23;;;7.30;99.90;;;;;;4996321;28;20708;-58
2023/04/25 01:37:14;;;;;;;25.10;4.80;;;7.30;99.90;;;;;;4998030;28;20239;-58
2023/04/25 01:39:46;;;;;;;17.93;4.50;;;7.30;99.90;;;;;;4997505;28;20229;-59
2023/04/25 01:42:14;;;;;;;20.43;5.03;;;7.30;99.90;;;;;;5015291;28;20219;-59
2023/04/25 01:44:42;;;;;;;21.90;4.47;;;7.30;99.90;;;;;;5015008;28;20229;-57
2023/04/25 01:47:11;;;;;;;25.43;4.83;;;7.30;99.90;;;;;;5002045;28;20259;-59
2023/04/25 01:49:39;;;;;;;21.00;4.93;;;7.30;99.90;;;;;;5032425;28;20217;-58
2023/04/25 01:52:07;;;;;;;18.20;4.30;;;7.30;99.90;;;;;;5035127;28;20638;-59
2023/04/25 01:54:36;;;;;;;21.80;4.50;;;7.30;99.90;;;;;;5003226;28;20272;-59
2023/04/25 01:57:05;;;;;;;19.53;4.70;;;7.40;99.90;;;;;;4997258;28;20234;-59
2023/04/25 01:59:36;;;;;;;18.80;5.07;;;7.30;99.90;;;;;;4997495;28;20234;-59
2023/04/25 02:02:17;;;;;;;17.90;4.93;;;7.30;99.90;;;;;;5015113;28;20708;-58
2023/04/25 02:04:45;;;;;;;17.00;3.83;;;7.20;99.90;;;;;;5027199;28;20290;-59
2023/04/25 02:07:14;;;;;;;16.07;3.80;;;7.20;99.90;;;;;;5033484;28;20294;-59
2023/04/25 02:09:53;;;;;;;17.80;4.30;;;7.30;99.90;;;;;;5015442;28;20313;-58
2023/04/25 02:12:28;;;;;;;19.87;4.50;;;7.20;99.90;;;;;;4993651;28;20586;-58
2023/04/25 02:15:02;;;;;;;19.00;4.33;;;7.20;99.90;;;;;;4995063;28;20585;-58
2023/04/25 02:17:39;;;;;;;22.27;4.33;;;7.30;99.90;;;;;;5012782;28;20259;-57
2023/04/25 02:20:08;;;;;;;14.93;3.63;;;7.30;99.90;;;;;;5032905;28;20324;-59
2023/04/25 02:22:36;;;;;;;21.27;5.13;;;7.20;99.90;;;;;;5034148;28;20706;-59
2023/04/25 02:25:07;;;;;;;21.63;4.37;;;7.20;99.90;;;;;;5015360;28;20229;-58
2023/04/25 02:27:37;;;;;;;18.30;4.30;;;7.20;99.90;;;;;;5032159;28;20287;-59
2023/04/25 02:30:07;;;;;;;21.70;4.57;;;7.20;99.90;;;;;;5014263;28;20225;-59
2023/04/25 02:32:35;;;;;;;14.20;4.10;;;7.10;99.90;;;;;;5012381;28;20238;-58
2023/04/25 02:35:04;;;;;;;16.93;3.93;;;7.10;99.90;;;;;;5014265;28;20558;-58
2023/04/25 02:37:33;;;;;;;17.37;4.77;;;7.10;99.90;;;;;;5012711;28;20226;-59
2023/04/25 02:40:02;;;;;;;17.23;3.90;;;7.10;99.90;;;;;;5014172;28;20231;-59
2023/04/25 02:42:32;;;;;;;25.03;4.80;;;7.00;99.90;;;;;;5012739;28;20225;-58
2023/04/25 02:45:02;;;;;;;16.07;3.47;;;7.00;99.90;;;;;;5013832;28;20308;-58
2023/04/25 02:47:30;;;;;;;16.83;4.27;;;6.90;99.90;;;;;;5020190;28;20747;-58
2023/04/25 02:49:59;;;;;;;20.47;3.90;;;6.90;99.90;;;;;;5033068;28;20224;-58
2023/04/25 02:52:28;;;;;;;18.67;4.67;;;6.80;99.90;;;;;;5032606;28;20232;-59
2023/04/25 02:55:04;;;;;;;17.03;4.07;;;6.80;99.90;;;;;;5012784;28;20224;-59
2023/04/25 02:57:34;;;;;;;16.13;3.80;;;6.70;99.90;;;;;;5012493;28;20320;-57
2023/04/25 03:00:05;;;;;;;15.03;4.90;;;6.70;99.90;;;;;;5012530;28;20392;-58
2023/04/25 03:02:33;;;;;;;14.47;3.60;;;6.70;99.90;;;;;;5013298;28;20241;-59
2023/04/25 03:05:03;;;;;;;15.70;3.73;;;6.60;99.90;;;;;;5012158;28;20273;-58
2023/04/25 03:07:31;;;;;;;16.20;3.70;;;6.60;99.90;;;;;;5012980;28;20719;-58
2023/04/25 03:09:59;;;;;;;17.63;4.27;;;6.60;99.90;;;;;;5030598;28;20318;-58
2023/04/25 03:12:28;;;;;;;13.73;3.53;;;6.60;99.90;;;;;;5031942;28;20231;-58
2023/04/25 03:14:56;;;;;;;18.90;4.67;;;6.70;99.90;;;;;;5033380;28;20221;-59
2023/04/25 03:17:26;;;;;;;16.33;3.20;;;6.70;99.90;;;;;;5026674;28;20311;-57
2023/04/25 03:19:54;;;;;;;14.63;3.40;;;6.80;99.90;;;;;;5030873;28;20221;-58
2023/04/25 03:22:22;;;;;;;13.93;3.80;;;6.80;99.90;;;;;;5031924;28;20765;-59
2023/04/25 03:24:52;;;;;;;13.13;3.43;;;6.90;99.90;;;;;;5014250;28;20762;-59
2023/04/25 03:27:20;;;;;;;18.60;3.73;;;6.80;99.90;;;;;;5033513;28;20640;-58
2023/04/25 03:29:48;;;;;;;17.10;3.60;;;6.80;99.90;;;;;;5013168;28;20684;-58
2023/04/25 03:32:16;;;;;;;14.40;3.30;;;6.80;99.90;;;;;;5011683;28;20233;-59
2023/04/25 03:34:46;;;;;;;18.03;3.57;;;6.70;99.90;;;;;;5013690;28;20300;-58
2023/04/25 03:37:14;;;;;;;14.93;3.57;;;6.70;99.90;;;;;;5031489;28;20691;-59
2023/04/25 03:39:42;;;;;;;9.57;3.07;;;6.70;99.90;;;;;;5031985;28;20224;-59
2023/04/25 03:42:11;;;;;;;15.60;4.03;;;6.90;99.90;;;;;;5031724;28;20260;-59
2023/04/25 03:44:39;;;;;;;19.73;3.57;;;6.90;99.90;;;;;;5031311;28;20232;-58
2023/04/25 03:47:07;;;;;;;14.57;3.07;;;6.90;99.90;;;;;;5026521;28;20221;-58
2023/04/25 03:49:36;;;;;;;12.53;3.70;;;6.90;99.90;;;;;;5028457;28;20278;-58
2023/04/25 03:52:08;;;;;;;14.33;3.17;;;6.90;99.90;;;;;;5011319;28;20228;-58
2023/04/25 03:54:40;;;;;;;12.10;2.80;;;6.80;99.90;;;;;;5021324;28;20642;-58
2023/04/25 03:57:16;;;;;;;18.57;3.87;;;6.80;99.90;;;;;;5010694;28;20228;-58
2023/04/25 03:59:45;;;;;;;14.07;3.10;;;6.70;99.90;;;;;;5011051;28;21287;-58
2023/04/25 04:02:15;;;;;;;12.83;3.23;;;6.90;99.90;;;;;;5010378;28;20233;-57
2023/04/25 04:04:44;;;;;;;19.07;3.70;;;6.90;99.90;;;;;;5010693;28;20233;-59
2023/04/25 04:07:14;;;;;;;16.43;3.03;;;6.80;99.90;;;;;;5011264;28;20233;-58
2023/04/25 04:09:45;;;;;;;13.27;3.63;;;6.80;99.90;;;;;;5009299;28;20241;-58
2023/04/25 04:12:19;;;;;;;10.53;2.97;;;6.70;99.90;;;;;;5011544;28;20233;-59
2023/04/25 04:14:47;;;;;;;10.37;3.10;;;6.80;99.90;;;;;;5011254;28;20320;-57
2023/04/25 04:17:15;;;;;;;15.07;3.30;;;6.80;99.90;;;;;;5017816;28;20228;-58
2023/04/25 04:19:44;;;;;;;12.20;3.27;;;6.80;99.90;;;;;;5030003;28;20303;-59
2023/04/25 04:22:17;;;;;;;14.93;3.53;;;6.80;99.90;;;;;;5031201;28;20327;-59
2023/04/25 04:24:47;;;;;;;12.60;3.53;;;6.70;99.90;;;;;;5012765;28;20229;-58
2023/04/25 04:27:21;;;;;;;18.83;3.90;;;6.70;99.90;;;;;;5011489;28;20237;-59
2023/04/25 04:29:54;;;;;;;13.90;3.27;;;6.90;99.90;;;;;;5012589;28;20265;-58
2023/04/25 04:32:27;;;;;;;15.07;3.23;;;6.90;99.90;;;;;;5024577;28;20611;-57
2023/04/25 04:34:55;;;;;;;17.20;3.50;;;6.90;99.90;;;;;;5030642;28;20231;-59
2023/04/25 04:37:27;;;;;;;10.73;3.70;;;6.80;99.90;;;;;;5011123;28;20229;-57
2023/04/25 04:39:55;;;;;;;19.93;3.60;;;6.80;99.90;;;;;;5010815;28;20635;-59
2023/04/25 04:42:27;;;;;;;16.53;3.20;;;6.80;99.90;;;;;;5010553;28;20225;-58
2023/04/25 04:45:03;;;;;;;20.10;3.90;;;6.70;99.90;;;;;;5009598;28;20260;-58
2023/04/25 04:47:46;;;;;;;15.80;3.77;;;6.70;99.90;;;;;;5012866;28;20376;-58
2023/04/25 04:50:33;;;;;;;16.73;3.57;;;6.70;99.90;;;;;;5031498;28;20236;-59
2023/04/25 04:53:23;;;;;;;17.00;3.83;;;6.60;99.90;;;;;;5030930;28;20229;-58
2023/04/25 04:56:10;;;;;;;12.57;2.87;;;6.60;99.90;;;;;;5027000;28;20727;-58
2023/04/25 04:58:48;;;;;;;13.50;2.93;;;6.60;99.90;;;;;;5012779;28;20233;-59
2023/04/25 05:01:46;;;;;;;12.40;3.33;;;6.60;99.90;;;;;;4992042;28;20329;-58
2023/04/25 05:04:33;;;;;;;10.20;2.20;;;6.60;99.90;;;;;;5022722;28;20290;-58
2023/04/25 05:07:20;;;;;;;11.53;2.70;;;6.50;99.90;;;;;;5037545;28;20741;-58
2023/04/25 05:10:05;;;;;;;13.93;3.27;;;6.60;99.90;;;;;;5017767;28;20229;-59
2023/04/25 05:13:03;;;;;;;10.60;2.60;;;6.60;99.90;;;;;;5017655;28;20649;-59
2023/04/25 05:15:45;;;;;;;11.70;2.80;;;6.70;99.90;;;;;;5017558;28;20633;-59
2023/04/25 05:18:19;;;;;;;13.93;3.00;;;6.80;99.90;;;;;;5047358;28;20219;-58
2023/04/25 05:21:04;;;;;;;16.33;3.00;;;6.80;99.90;;;;;;5037458;28;20690;-59
2023/04/25 05:23:55;;;;;;;11.60;3.23;;;6.80;99.90;;;;;;5012630;28;20241;-58
2023/04/25 05:26:43;;;;;;;11.70;3.03;;;6.90;99.90;;;;;;5035823;28;20239;-54
2023/04/25 05:29:34;;;;;;;10.37;2.87;;;6.90;99.90;;;;;;5020248;28;20696;-53
2023/04/25 05:32:12;;;;;;;12.17;2.90;;;6.90;99.90;;;;;;5012118;28;20311;-54
2023/04/25 05:34:41;;;;;;;9.37;3.17;;;7.00;99.90;;;;;;5027384;28;20775;-53
2023/04/25 05:37:21;;;;;;;10.67;3.20;;;7.10;99.90;;;;;;5036865;28;20695;-53
2023/04/25 05:39:59;;;;;;;11.07;3.10;;;7.10;99.90;;;;;;5020057;28;20216;-54
2023/04/25 05:43:01;;;;;;;13.13;2.87;;;7.10;99.90;;;;;;5008496;28;20224;-55
2023/04/25 05:45:45;;;;;;;10.37;2.67;;;7.20;99.90;;;;;;5020745;28;20301;-55
2023/04/25 05:48:49;;;;;;;14.23;2.80;;;7.20;99.90;;;;;;4978791;28;20712;-54
2023/04/25 05:51:32;;;;;;;12.27;2.80;;;7.20;99.90;;;;;;5000216;28;20236;-53
2023/04/25 05:54:29;;;;;;;12.03;2.40;;;7.10;99.90;;;;;;5021620;28;20221;-54
2023/04/25 05:56:58;;;;;;;14.40;2.53;;;7.10;99.90;;;;;;5001926;28;20310;-54
2023/04/25 05:59:27;;;;;;;10.50;2.77;;;7.10;99.90;;;;;;5021874;28;20225;-56
2023/04/25 06:01:55;;;;;;;10.17;2.50;;;7.00;99.90;;;;;;5020204;28;20232;-53
2023/04/25 06:04:24;;;;;;;14.23;2.67;;;7.00;99.90;;;;;;5021680;28;20236;-53
2023/04/25 06:06:54;;;;;;;11.60;2.67;;;6.90;99.90;;;;;;5019490;28;20217;-54
2023/04/25 06:09:23;;;;;;;9.60;3.40;;;6.80;99.90;;;;;;5018918;28;20236;-54
2023/04/25 06:11:54;;;;;;;13.70;3.13;;;6.80;99.90;;;;;;5019974;28;20229;-55
2023/04/25 06:14:22;;;;;;;9.73;2.47;;;6.80;99.90;;;;;;5003553;28;20232;-54
2023/04/25 06:16:53;;;;;;;12.33;3.07;;;6.90;99.90;;;;;;5001584;28;20252;-55
2023/04/25 06:19:21;;;;;;;12.93;3.20;;;6.90;99.90;;;;;;5002535;28;20234;-55
2023/04/25 06:21:49;;;;;;;11.63;2.43;;;6.90;99.90;;;;;;5021502;28;20337;-55
2023/04/25 06:24:17;;;;;;;11.90;2.67;;;7.00;99.90;;;;;;5002572;28;20251;-55
2023/04/25 06:26:47;;;;;;;10.37;2.50;;;7.00;99.90;;;;;;5001099;28;20236;-54
2023/04/25 06:29:15;;;;;;;14.27;2.93;;;6.90;99.90;;;;;;5020841;28;20846;-55
2023/04/25 06:31:44;;;;;;;11.20;2.87;;;6.90;99.90;;;;;;5002685;28;20880;-56
2023/04/25 06:34:16;;;;;;;9.93;2.37;;;6.90;99.90;;;;;;5002895;28;20228;-53
2023/04/25 06:36:45;;;;;;;14.03;2.73;;;6.80;99.90;;;;;;5018892;28;20287;-54
2023/04/25 06:39:16;;;;;;;15.50;3.00;;;6.80;99.90;;;;;;5001521;28;20224;-55
2023/04/25 06:41:44;;;;;;;16.77;3.03;;;6.90;99.90;;;;;;5018945;28;20706;-54
2023/04/25 06:44:35;;;;;;;15.10;2.77;;;6.90;99.90;;;;;;5017064;28;20615;-53
2023/04/25 06:47:05;;;;;;;12.20;2.73;;;7.00;99.90;;;;;;5014080;28;20243;-54
2023/04/25 06:49:34;;;;;;;12.27;2.60;;;7.00;99.90;;;;;;5016553;28;20228;-55
2023/04/25 06:52:03;;;;;;;14.07;2.60;;;7.10;99.90;;;;;;5016379;28;20226;-51
2023/04/25 06:54:31;;;;;;;8.90;2.00;;;7.00;99.90;;;;;;4999323;28;20286;-55
2023/04/25 06:57:11;;;;;;;9.73;1.90;;;7.00;99.90;;;;;;4998379;28;20745;-54
2023/04/25 06:59:39;;;;;;;8.30;1.57;;;7.00;99.90;;;;;;5015856;28;20229;-53
2023/04/25 07:02:07;;;;;;;8.07;1.77;;;7.00;99.90;;;;;;4999501;28;20282;-54
2023/04/25 07:04:37;;;;;;;7.10;1.40;;;6.90;99.90;;;;;;4998093;28;20244;-53
2023/04/25 07:07:05;;;;;;;4.63;1.37;;;7.00;99.90;;;;;;4999676;28;20237;-54
2023/04/25 07:09:40;;;;;;;5.73;1.60;;;7.10;99.90;;;;;;5002603;28;20730;-55
2023/04/25 07:12:08;;;;;;;5.90;1.53;;;7.10;99.90;;;;;;5020704;28;20762;-55
2023/04/25 07:14:37;;;;;;;4.27;1.50;;;7.20;99.90;;;;;;5001829;28;20232;-53
2023/04/25 07:17:06;;;;;;;5.13;1.43;;;7.40;99.90;;;;;;5001224;28;20759;-54
2023/04/25 07:19:38;;;;;;;5.10;1.27;;;7.50;99.90;;;;;;5002267;28;20751;-55
2023/04/25 07:22:07;;;;;;;6.07;1.60;;;7.60;99.90;;;;;;5002666;28;20352;-55
2023/04/25 07:24:37;;;;;;;5.43;1.20;;;7.70;99.90;;;;;;5002228;28;20232;-55
2023/04/25 07:27:06;;;;;;;6.17;1.47;;;7.70;99.90;;;;;;5001169;28;20354;-55
2023/04/25 07:29:52;;;;;;;6.43;1.67;;;7.80;99.90;;;;;;5002878;28;20734;-53
2023/04/25 07:32:23;;;;;;;7.57;1.80;;;7.90;99.90;;;;;;4998146;28;20306;-54
2023/04/25 07:34:53;;;;;;;8.33;1.93;;;7.90;99.90;;;;;;5002210;28;20286;-54
2023/04/25 07:37:21;;;;;;;8.03;1.97;;;8.10;99.90;;;;;;5000906;28;20233;-55
2023/04/25 07:40:03;;;;;;;7.70;1.77;;;8.40;99.90;;;;;;5017135;28;20665;-53
2023/04/25 07:42:33;;;;;;;10.47;2.00;;;8.60;99.90;;;;;;5000162;28;20716;-54
2023/04/25 07:45:02;;;;;;;6.87;1.50;;;8.50;99.90;;;;;;5000589;28;20253;-55
2023/04/25 07:47:31;;;;;;;9.83;1.80;;;8.50;99.90;;;;;;5014111;28;21007;-56
2023/04/25 07:50:00;;;;;;;7.33;1.73;;;8.30;99.90;;;;;;5017606;28;20220;-54
2023/04/25 07:52:30;;;;;;;6.33;1.50;;;8.00;99.90;;;;;;5018589;28;20701;-55
2023/04/25 07:55:07;;;;;;;4.70;1.40;;;7.70;99.90;;;;;;5018647;28;20311;-54
2023/04/25 07:57:44;;;;;;;7.73;1.80;;;7.60;99.90;;;;;;5002355;28;20238;-56
2023/04/25 08:00:14;;;;;;;9.40;2.00;;;7.90;99.90;;;;;;5002220;28;20327;-53
2023/04/25 08:02:48;;;;;;;7.17;1.70;;;8.10;99.90;;;;;;4981776;28;20311;-56
2023/04/25 08:05:18;;;;;;;10.43;1.87;;;8.30;99.90;;;;;;4998357;28;20253;-54
2023/04/25 08:07:56;;;;;;;7.70;1.80;;;8.30;99.90;;;;;;4977434;28;20352;-52
2023/04/25 08:10:25;;;;;;;8.80;2.10;;;8.40;99.90;;;;;;4980582;28;20230;-53
2023/04/25 08:12:53;;;;;;;11.63;2.50;;;8.50;99.90;;;;;;4979319;28;20236;-54
2023/04/25 08:15:21;;;;;;;9.43;2.10;;;8.50;99.90;;;;;;4995311;28;20287;-55
2023/04/25 08:17:49;;;;;;;7.10;1.70;;;8.50;99.90;;;;;;4995161;28;20678;-54
2023/04/25 08:20:19;;;;;;;7.43;1.50;;;8.60;99.90;;;;;;4979119;28;20236;-54
2023/04/25 08:22:48;;;;;;;11.03;1.73;;;8.60;99.90;;;;;;4994295;28;20256;-53
2023/04/25 08:25:31;;;;;;;8.67;1.77;;;8.80;99.90;;;;;;4978732;28;20274;-55
2023/04/25 08:28:02;;;;;;;3.90;1.40;;;9.50;99.90;;;;;;4995834;28;20229;-56
2023/04/25 08:30:30;;;;;;;7.53;1.53;;;10.30;99.90;;;;;;4995212;28;20301;-54
2023/04/25 08:32:59;;;;;;;8.37;1.57;;;11.30;99.90;;;;;;4978933;28;20245;-54
2023/04/25 08:35:49;;;;;;;4.67;1.30;;;11.70;99.90;;;;;;4996694;28;20234;-56
2023/04/25 08:38:17;;;;;;;6.27;1.33;;;11.50;99.90;;;;;;4994707;28;20231;-56
2023/04/25 08:40:50;;;;;;;7.00;1.77;;;11.00;99.90;;;;;;4998377;28;20239;-56
2023/04/25 08:43:20;;;;;;;5.40;1.47;;;10.20;99.90;;;;;;4998305;28;20664;-56
2023/04/25 08:45:48;;;;;;;8.43;1.80;;;9.10;99.90;;;;;;5002872;28;20229;-54
2023/04/25 08:48:35;;;;;;;8.23;1.77;;;8.30;99.90;;;;;;4997865;28;20281;-56
2023/04/25 08:51:08;;;;;;;6.67;1.30;;;7.80;99.90;;;;;;5000204;28;20265;-55
2023/04/25 08:53:42;;;;;;;6.47;1.60;;;7.70;99.90;;;;;;5000037;28;20230;-55
2023/04/25 08:56:14;;;;;;;7.47;1.67;;;7.80;99.90;;;;;;5001021;28;20252;-54
2023/04/25 08:58:42;;;;;;;4.50;1.50;;;8.10;99.90;;;;;;4999110;28;20246;-54
2023/04/25 09:01:10;;;;;;;4.77;1.37;;;8.70;99.90;;;;;;4998492;28;20837;-54
2023/04/25 09:03:47;;;;;;;8.97;1.33;;;9.00;99.90;;;;;;4998834;28;20249;-54
2023/04/25 09:06:18;;;;;;;9.90;1.60;;;8.90;99.90;;;;;;4999110;28;20241;-55
2023/04/25 09:08:46;;;;;;;7.53;1.83;;;8.60;99.90;;;;;;4980187;28;20299;-56
2023/04/25 09:11:15;;;;;;;6.37;1.80;;;8.50;99.90;;;;;;5000606;28;20800;-55
2023/04/25 09:13:44;;;;;;;9.53;1.53;;;8.90;99.90;;;;;;4999919;28;20650;-55
2023/04/25 09:16:28;;;;;;;13.40;1.60;;;9.50;99.90;;;;;;4999397;28;20632;-56
2023/04/25 09:19:23;;;;;;;5.63;1.13;;;8.90;99.90;;;;;;4999952;28;20249;-56
2023/04/25 09:22:08;;;;;;;5.37;1.37;;;7.90;99.90;;;;;;4982829;28;20233;-54
2023/04/25 09:24:39;;;;;;;6.23;1.30;;;7.80;99.90;;;;;;4981873;28;20221;-54
2023/04/25 09:27:08;;;;;;;6.67;1.33;;;7.80;99.90;;;;;;4998627;28;20224;-54
2023/04/25 09:29:38;;;;;;;7.63;1.80;;;8.00;99.90;;;;;;4999267;28;20699;-54
2023/04/25 09:32:17;;;;;;;7.33;1.40;;;8.10;99.90;;;;;;4982128;28;20771;-54
2023/04/25 09:34:49;;;;;;;7.90;1.70;;;8.40;99.90;;;;;;4998168;28;20230;-53
2023/04/25 09:37:22;;;;;;;6.97;1.60;;;8.80;99.90;;;;;;4997344;28;20233;-56
2023/04/25 09:40:09;;;;;;;9.00;1.67;;;9.40;99.90;;;;;;4999343;28;20712;-56
2023/04/25 09:42:51;;;;;;;8.83;1.97;;;10.20;99.90;;;;;;4982322;28;20227;-55
2023/04/25 09:45:19;;;;;;;8.70;2.20;;;10.80;99.90;;;;;;5000437;28;20223;-56
2023/04/25 09:47:47;;;;;;;5.00;1.50;;;11.20;99.90;;;;;;4979300;28;20321;-55
2023/04/25 09:50:24;;;;;;;8.97;1.63;;;11.80;99.90;;;;;;4982778;28;20735;-56
2023/04/25 09:53:07;;;;;;;8.70;1.63;;;11.80;99.90;;;;;;4996574;28;20254;-56
2023/04/25 09:55:53;;;;;;;6.37;1.67;;;11.00;99.90;;;;;;4997205;28;20228;-56
2023/04/25 09:58:22;;;;;;;6.67;1.57;;;10.40;99.90;;;;;;5000349;28;20229;-55
2023/04/25 10:00:50;;;;;;;8.07;1.47;;;9.90;99.90;;;;;;5001588;28;20868;-55
2023/04/25 10:03:31;;;;;;;6.13;1.40;;;10.10;99.90;;;;;;4985976;28;20257;-56
2023/04/25 10:06:21;;;;;;;8.90;1.70;;;10.40;99.90;;;;;;4983820;28;20597;-56
2023/04/25 10:08:55;;;;;;;4.70;1.30;;;10.50;99.90;;;;;;5000250;28;20234;-54
2023/04/25 10:11:27;;;;;;;6.77;1.27;;;10.20;99.90;;;;;;5001234;28;20725;-55
2023/04/25 10:13:55;;;;;;;7.93;1.40;;;8.90;99.90;;;;;;5001618;28;20231;-54
2023/04/25 10:16:23;;;;;;;6.97;1.20;;;8.20;99.90;;;;;;5001344;28;20642;-54
2023/04/25 10:18:52;;;;;;;8.20;1.40;;;7.80;99.90;;;;;;5001474;28;20223;-55
2023/04/25 10:21:22;;;;;;;6.43;1.73;;;7.40;99.90;;;;;;5001100;28;20716;-54
2023/04/25 10:23:53;;;;;;;4.37;1.30;;;7.30;99.90;;;;;;5000814;28;20240;-56
2023/04/25 10:26:21;;;;;;;4.20;1.40;;;7.30;99.90;;;;;;5001128;28;20236;-54
2023/04/25 10:29:00;;;;;;;7.77;1.70;;;7.50;99.90;;;;;;5000494;28;20239;-53
2023/04/25 10:31:30;;;;;;;4.90;1.47;;;7.50;99.90;;;;;;5000635;28;20716;-54
2023/04/25 10:34:00;;;;;;;4.60;1.20;;;7.60;99.90;;;;;;5001214;28;20711;-56
2023/04/25 10:36:33;;;;;;;5.73;1.57;;;7.90;99.90;;;;;;5000654;28;20229;-54
2023/04/25 10:39:07;;;;;;;5.63;1.20;;;8.10;99.90;;;;;;5000787;28;20239;-54
2023/04/25 10:41:47;;;;;;;4.73;1.20;;;8.30;99.90;;;;;;4999885;28;20837;-57
2023/04/25 10:44:16;;;;;;;5.90;1.30;;;8.40;99.90;;;;;;4999386;28;20562;-58
2023/04/25 10:46:45;;;;;;;7.93;1.70;;;8.40;99.90;;;;;;4997602;28;20257;-58
2023/04/25 10:49:30;;;;;;;9.77;1.40;;;8.40;99.90;;;;;;4998976;28;20226;-56
2023/04/25 10:52:25;;;;;;;6.97;1.60;;;8.60;99.90;;;;;;4999910;28;20685;-57
2023/04/25 10:54:56;;;;;;;7.47;1.27;;;8.80;99.90;;;;;;4999625;28;20311;-59
2023/04/25 10:57:38;;;;;;;8.00;1.60;;;9.10;99.90;;;;;;4998016;28;20595;-59
2023/04/25 11:00:12;;;;;;;5.47;1.60;;;9.10;99.90;;;;;;4998797;28;20225;-58
2023/04/25 11:02:47;;;;;;;6.00;1.40;;;9.20;99.90;;;;;;4999274;28;20245;-59
2023/04/25 11:05:23;;;;;;;9.43;1.87;;;9.30;99.90;;;;;;4998832;28;20309;-57
2023/04/25 11:07:54;;;;;;;6.30;1.40;;;9.30;99.90;;;;;;4998371;28;20230;-59
2023/04/25 11:10:36;;;;;;;6.00;1.47;;;9.50;99.90;;;;;;5002197;28;20411;-59
2023/04/25 11:13:04;;;;;;;8.83;1.87;;;9.80;99.90;;;;;;5002914;28;20323;-58
2023/04/25 11:15:32;;;;;;;7.93;1.50;;;10.40;99.90;;;;;;5001884;28;20319;-59
2023/04/25 11:18:01;;;;;;;6.20;1.57;;;10.80;99.90;;;;;;5000639;28;20233;-58
2023/04/25 11:20:29;;;;;;;6.10;1.40;;;10.70;99.90;;;;;;5001530;28;20238;-58
2023/04/25 11:22:59;;;;;;;9.30;1.63;;;10.10;99.90;;;;;;5002494;28;20240;-58
2023/04/25 11:25:28;;;;;;;5.57;1.27;;;9.70;99.90;;;;;;5001546;28;20285;-56
2023/04/25 11:28:00;;;;;;;7.50;1.60;;;9.60;99.90;;;;;;4997308;28;21101;-57
2023/04/25 11:30:30;;;;;;;6.30;1.63;;;9.40;99.90;;;;;;4998581;28;20756;-56
2023/04/25 11:32:58;;;;;;;3.70;1.33;;;9.20;99.90;;;;;;5000016;28;20252;-56
2023/04/25 11:35:26;;;;;;;8.07;1.50;;;9.20;99.90;;;;;;4999584;28;21253;-57
2023/04/25 11:37:54;;;;;;;5.63;1.50;;;9.30;99.90;;;;;;4997856;28;20242;-56
2023/04/25 11:40:23;;;;;;;5.87;1.40;;;9.50;99.90;;;;;;4999253;28;20801;-58
2023/04/25 11:42:51;;;;;;;6.70;1.27;;;9.80;99.90;;;;;;4998679;28;20235;-57
2023/04/25 11:45:24;;;;;;;7.97;2.00;;;10.00;99.90;;;;;;4998452;28;20718;-55
2023/04/25 11:47:53;;;;;;;5.17;1.60;;;10.20;99.90;;;;;;4995948;28;20578;-58
2023/04/25 11:50:21;;;;;;;7.33;1.40;;;10.20;99.90;;;;;;4999549;28;20245;-56
2023/04/25 11:52:50;;;;;;;7.37;2.00;;;10.50;99.90;;;;;;5000128;28;20607;-58
2023/04/25 11:55:20;;;;;;;13.30;2.10;;;10.30;99.90;;;;;;5000275;28;20297;-58
2023/04/25 11:57:49;;;;;;;6.83;1.37;;;10.20;99.90;;;;;;4997743;28;20252;-59
2023/04/25 12:00:20;;;;;;;6.73;1.50;;;9.80;99.90;;;;;;4999243;28;20223;-58
2023/04/25 12:02:54;;;;;;;6.87;1.43;;;9.10;99.90;;;;;;5020549;28;20657;-57
2023/04/25 12:05:25;;;;;;;6.17;1.40;;;9.10;99.90;;;;;;5020236;28;20504;-58
2023/04/25 12:08:10;;;;;;;1.40;0.77;;;9.20;99.90;;;;;;5019617;28;20704;-58
2023/04/25 12:10:40;;;;;;;5.93;1.27;;;9.30;99.90;;;;;;5020041;28;20333;-59
2023/04/25 12:13:22;;;;;;;6.50;1.53;;;9.40;99.90;;;;;;5020765;28;20234;-58
2023/04/25 12:15:50;;;;;;;7.83;1.50;;;9.30;99.90;;;;;;5020776;28;20250;-57
2023/04/25 12:18:22;;;;;;;7.07;1.67;;;9.50;99.90;;;;;;5021256;28;20239;-57
2023/04/25 12:20:50;;;;;;;3.97;1.20;;;9.90;99.90;;;;;;5024831;28;20221;-58
2023/04/25 12:23:18;;;;;;;6.83;1.30;;;10.70;99.90;;;;;;5024745;28;20234;-56
2023/04/25 12:25:46;;;;;;;5.67;1.27;;;11.40;99.90;;;;;;5025047;28;20243;-57
2023/04/25 12:28:19;;;;;;;4.60;1.43;;;11.50;99.90;;;;;;5023846;28;20721;-58
2023/04/25 12:30:55;;;;;;;4.20;1.27;;;11.60;99.90;;;;;;5018698;28;20333;-57
2023/04/25 12:33:24;;;;;;;8.97;1.57;;;11.80;99.90;;;;;;5003547;28;20246;-57
2023/04/25 12:35:53;;;;;;;8.53;1.80;;;11.70;99.90;;;;;;5003432;28;20237;-56
2023/04/25 12:38:23;;;;;;;4.63;1.37;;;11.60;99.90;;;;;;5001883;28;20231;-57
2023/04/25 12:40:51;;;;;;;4.83;1.80;;;11.50;99.90;;;;;;5002931;28;20966;-58
2023/04/25 12:43:19;;;;;;;6.23;1.83;;;11.30;99.90;;;;;;5003434;28;20230;-56
2023/04/25 12:45:49;;;;;;;5.30;1.30;;;11.50;99.90;;;;;;5002956;28;20255;-57
2023/04/25 12:48:17;;;;;;;5.90;1.67;;;11.30;99.90;;;;;;5001831;28;20265;-58
2023/04/25 12:50:48;;;;;;;12.00;1.43;;;11.50;99.90;;;;;;5003033;28;20243;-57
2023/04/25 12:53:17;;;;;;;7.10;1.67;;;11.60;99.90;;;;;;5003458;28;20630;-55
2023/04/25 12:55:46;;;;;;;8.53;1.60;;;11.30;99.90;;;;;;5003351;28;20918;-57
2023/04/25 12:58:15;;;;;;;7.47;1.70;;;10.60;99.90;;;;;;5001852;28;20588;-55
2023/04/25 13:00:43;;;;;;;7.77;1.63;;;10.30;99.90;;;;;;5002895;28;20920;-57
2023/04/25 13:03:12;;;;;;;7.67;1.50;;;10.20;99.90;;;;;;5004029;28;20247;-58
2023/04/25 13:06:01;;;;;;;8.23;1.70;;;10.10;99.90;;;;;;5003089;28;20255;-57
2023/04/25 13:08:29;;;;;;;7.63;1.40;;;10.00;99.90;;;;;;5001658;28;20230;-57
2023/04/25 13:10:57;;;;;;;3.97;1.47;;;9.70;99.90;;;;;;5003271;28;20235;-58
2023/04/25 13:13:27;;;;;;;9.23;1.93;;;9.80;99.90;;;;;;5002551;28;20729;-58
2023/04/25 13:15:55;;;;;;;4.13;1.37;;;9.90;99.90;;;;;;5002396;28;20243;-56